createdAt,value
2022-10-22T00:01:28.367Z,100412.69
2022-10-22T00:03:55.253Z,100422.69
2022-10-22T00:06:21.929Z,100429.69
2022-10-22T00:08:48.708Z,100424.88
2022-10-22T00:11:17.167Z,100411.44
2022-10-22T00:13:44.278Z,100409.94
2022-10-22T00:16:11.687Z,100400.78
2022-10-22T00:18:39.323Z,100416.34
2022-10-22T00:21:06.555Z,100413.87
2022-10-22T00:23:34.025Z,100424.81
2022-10-22T00:26:00.603Z,100422.97
2022-10-22T00:28:27.391Z,100416.91
2022-10-22T00:30:59.374Z,100416.53
2022-10-22T00:33:26.604Z,100419.31
2022-10-22T00:35:53.496Z,100420.47
2022-10-22T00:38:20.423Z,100415.03
2022-10-22T00:40:48.142Z,100408.94
2022-10-22T00:43:17.030Z,100407.28
2022-10-22T00:45:44.153Z,100403.59
2022-10-22T00:48:13.431Z,100404.31
2022-10-22T00:50:48.995Z,100403.16
2022-10-22T00:53:20.653Z,100404.53
2022-10-22T00:55:51.452Z,100390.97
2022-10-22T00:58:18.858Z,100391.75
2022-10-22T01:00:45.508Z,100380.44
2022-10-22T01:03:12.194Z,100394.44
2022-10-22T01:05:47.122Z,100391.44
2022-10-22T01:08:26.683Z,100396.16
2022-10-22T01:11:16.972Z,100402.13
2022-10-22T01:14:04.679Z,100390.59
2022-10-22T01:16:54.784Z,100402.03
2022-10-22T01:19:43.473Z,100399.87
2022-10-22T01:22:51.066Z,100403.75
2022-10-22T01:25:25.029Z,100404.69
2022-10-22T01:28:19.017Z,100398.41
2022-10-22T01:30:46.709Z,100401.06
2022-10-22T01:33:18.621Z,100397.91
2022-10-22T01:35:45.981Z,100400.13
2022-10-22T01:38:21.032Z,100404.50
2022-10-22T01:40:48.443Z,100398.75
2022-10-22T01:43:15.246Z,100399.72
2022-10-22T01:45:50.206Z,100400.56
2022-10-22T01:49:00.722Z,100407.66
2022-10-22T01:51:39.682Z,100408.75
2022-10-22T01:54:32.492Z,100403.34
2022-10-22T01:57:13.621Z,100409.87
2022-10-22T01:59:56.986Z,100402.19
2022-10-22T02:02:29.737Z,100396.50
2022-10-22T02:05:07.932Z,100394.59
2022-10-22T02:07:41.535Z,100386.31
2022-10-22T02:10:10.130Z,100380.50
2022-10-22T02:12:39.604Z,100381.81
2022-10-22T02:15:08.253Z,100388.66
2022-10-22T02:17:38.587Z,100387.25
2022-10-22T02:20:18.167Z,100382.97
2022-10-22T02:22:45.207Z,100378.28
2022-10-22T02:25:12.735Z,100374.09
2022-10-22T02:27:57.506Z,100365.91
2022-10-22T02:30:24.751Z,100357.19
2022-10-22T02:32:57.484Z,100378.16
2022-10-22T02:35:27.832Z,100382.75
2022-10-22T02:37:56.063Z,100388.16
2022-10-22T02:40:23.468Z,100386.44
2022-10-22T02:42:51.008Z,100382.00
2022-10-22T02:45:19.352Z,100377.50
2022-10-22T02:47:46.259Z,100374.19
2022-10-22T02:50:13.160Z,100363.25
2022-10-22T02:52:39.917Z,100374.41
2022-10-22T02:55:07.441Z,100388.78
2022-10-22T02:57:34.015Z,100386.81
2022-10-22T03:00:00.569Z,100404.88
2022-10-22T03:02:27.109Z,100403.97
2022-10-22T03:04:53.650Z,100401.25
2022-10-22T03:07:20.201Z,100408.62
2022-10-22T03:09:47.063Z,100406.87
2022-10-22T03:12:13.853Z,100404.00
2022-10-22T03:14:40.422Z,100407.50
2022-10-22T03:17:07.086Z,100398.19
2022-10-22T03:19:33.645Z,100398.75
2022-10-22T03:22:06.042Z,100397.94
2022-10-22T03:24:38.804Z,100391.53
2022-10-22T03:27:05.575Z,100386.09
2022-10-22T03:29:35.981Z,100379.50
2022-10-22T03:32:02.590Z,100379.59
2022-10-22T03:34:29.208Z,100384.69
2022-10-22T03:36:59.429Z,100372.53
2022-10-22T03:39:27.140Z,100370.47
2022-10-22T03:41:53.908Z,100369.06
2022-10-22T03:44:22.583Z,100364.69
2022-10-22T03:46:49.274Z,100368.59
2022-10-22T03:49:15.849Z,100365.84
2022-10-22T03:51:42.423Z,100354.72
2022-10-22T03:54:09.005Z,100356.31
2022-10-22T03:56:35.621Z,100363.53
2022-10-22T03:59:02.440Z,100366.66
2022-10-22T04:01:30.481Z,100354.25
2022-10-22T04:03:58.309Z,100350.34
2022-10-22T04:06:26.005Z,100353.53
2022-10-22T04:08:52.613Z,100351.75
2022-10-22T04:11:19.233Z,100349.34
2022-10-22T04:13:45.794Z,100366.91
2022-10-22T04:16:14.184Z,100373.88
2022-10-22T04:18:41.691Z,100367.97
2022-10-22T04:21:09.956Z,100377.91
2022-10-22T04:23:37.260Z,100375.09
2022-10-22T04:26:06.964Z,100372.63
2022-10-22T04:28:35.076Z,100365.47
2022-10-22T04:31:08.189Z,100366.31
2022-10-22T04:33:34.808Z,100361.38
2022-10-22T04:36:08.772Z,100377.50
2022-10-22T04:38:35.385Z,100372.78
2022-10-22T04:41:14.260Z,100371.75
2022-10-22T04:43:41.821Z,100371.91
2022-10-22T04:46:09.720Z,100374.31
2022-10-22T04:48:37.174Z,100371.53
2022-10-22T04:51:05.634Z,100362.25
2022-10-22T04:53:33.178Z,100367.44
2022-10-22T04:56:09.054Z,100361.19
2022-10-22T04:58:35.724Z,100354.63
2022-10-22T05:01:09.697Z,100374.91
2022-10-22T05:03:36.348Z,100377.44
2022-10-22T05:06:03.089Z,100372.87
2022-10-22T05:08:29.707Z,100367.53
2022-10-22T05:10:56.236Z,100371.91
2022-10-22T05:13:22.836Z,100371.59
2022-10-22T05:15:49.403Z,100377.09
2022-10-22T05:18:18.982Z,100379.34
2022-10-22T05:20:48.487Z,100367.78
2022-10-22T05:23:15.032Z,100369.50
2022-10-22T05:25:41.540Z,100368.84
2022-10-22T05:28:08.095Z,100365.56
2022-10-22T05:30:34.647Z,100362.44
2022-10-22T05:33:01.211Z,100369.13
2022-10-22T05:35:27.849Z,100370.13
2022-10-22T05:37:54.409Z,100369.53
2022-10-22T05:40:30.545Z,100372.34
2022-10-22T05:42:58.814Z,100368.19
2022-10-22T05:45:25.358Z,100369.94
2022-10-22T05:47:51.893Z,100374.66
2022-10-22T05:50:18.426Z,100371.53
2022-10-22T05:52:44.966Z,100368.47
2022-10-22T05:55:11.483Z,100363.06
2022-10-22T05:57:39.854Z,100369.81
2022-10-22T06:00:07.185Z,100372.53
2022-10-22T06:02:33.824Z,100378.25
2022-10-22T06:05:00.428Z,100395.75
2022-10-22T06:07:27.044Z,100390.13
2022-10-22T06:09:53.882Z,100383.75
2022-10-22T06:12:20.651Z,100394.50
2022-10-22T06:14:47.220Z,100396.03
2022-10-22T06:17:13.771Z,100402.09
2022-10-22T06:19:40.312Z,100408.75
2022-10-22T06:22:06.868Z,100414.31
2022-10-22T06:24:33.669Z,100409.50
2022-10-22T06:27:00.266Z,100414.91
2022-10-22T06:29:26.807Z,100405.03
2022-10-22T06:31:53.345Z,100408.91
2022-10-22T06:34:20.153Z,100414.94
2022-10-22T06:36:47.504Z,100410.34
2022-10-22T06:39:16.590Z,100420.19
2022-10-22T06:41:43.256Z,100417.41
2022-10-22T06:44:15.773Z,100428.84
2022-10-22T06:46:43.628Z,100425.44
2022-10-22T06:49:14.133Z,100423.22
2022-10-22T06:51:40.872Z,100425.22
2022-10-22T06:54:07.502Z,100436.03
2022-10-22T06:56:34.120Z,100444.63
2022-10-22T06:59:00.672Z,100427.13
2022-10-22T07:01:30.424Z,100424.28
2022-10-22T07:03:57.977Z,100431.75
2022-10-22T07:06:26.736Z,100429.19
2022-10-22T07:08:58.456Z,100420.47
2022-10-22T07:11:28.091Z,100408.25
2022-10-22T07:13:56.310Z,100419.13
2022-10-22T07:16:25.725Z,100427.00
2022-10-22T07:18:54.953Z,100422.53
2022-10-22T07:21:22.712Z,100414.81
2022-10-22T07:23:49.311Z,100420.28
2022-10-22T07:26:17.228Z,100415.44
2022-10-22T07:28:44.111Z,100422.38
2022-10-22T07:31:12.320Z,100413.94
2022-10-22T07:33:39.217Z,100406.22
2022-10-22T07:36:08.928Z,100404.88
2022-10-22T07:38:41.446Z,100411.03
2022-10-22T07:41:08.054Z,100408.94
2022-10-22T07:43:34.666Z,100404.50
2022-10-22T07:46:02.788Z,100404.94
2022-10-22T07:48:29.725Z,100399.66
2022-10-22T07:50:58.294Z,100405.34
2022-10-22T07:53:24.923Z,100405.38
2022-10-22T07:55:52.142Z,100402.81
2022-10-22T07:58:20.354Z,100414.75
2022-10-22T08:00:47.416Z,100419.53
2022-10-22T08:03:15.373Z,100415.00
2022-10-22T08:05:43.841Z,100420.97
2022-10-22T08:08:11.812Z,100409.87
2022-10-22T08:10:38.767Z,100416.72
2022-10-22T08:13:06.682Z,100416.66
2022-10-22T08:15:33.320Z,100419.53
2022-10-22T08:18:02.919Z,100410.72
2022-10-22T08:20:29.520Z,100420.50
2022-10-22T08:22:56.120Z,100410.94
2022-10-22T08:25:22.837Z,100416.28
2022-10-22T08:27:49.538Z,100416.75
2022-10-22T08:30:17.228Z,100403.13
2022-10-22T08:32:43.948Z,100406.97
2022-10-22T08:35:14.107Z,100404.28
2022-10-22T08:37:43.729Z,100401.31
2022-10-22T08:40:28.650Z,100410.63
2022-10-22T08:43:23.586Z,100411.94
2022-10-22T08:45:50.173Z,100408.38
2022-10-22T08:48:35.280Z,100415.19
2022-10-22T08:51:01.841Z,100413.09
2022-10-22T08:53:44.088Z,100413.09
2022-10-22T08:56:10.645Z,100415.47
2022-10-22T08:58:57.072Z,100421.88
2022-10-22T09:01:39.535Z,100418.09
2022-10-22T09:04:06.277Z,100410.69
2022-10-22T09:06:35.425Z,100418.47
2022-10-22T09:09:09.791Z,100415.75
2022-10-22T09:11:39.445Z,100404.94
2022-10-22T09:14:06.956Z,100409.50
2022-10-22T09:16:43.065Z,100409.72
2022-10-22T09:19:33.958Z,100406.44
2022-10-22T09:22:03.395Z,100411.25
2022-10-22T09:24:39.193Z,100411.69
2022-10-22T09:27:16.570Z,100411.84
2022-10-22T09:29:44.350Z,100410.56
2022-10-22T09:32:11.188Z,100409.28
2022-10-22T09:34:37.911Z,100401.50
2022-10-22T09:37:09.852Z,100415.31
2022-10-22T09:39:44.960Z,100412.59
2022-10-22T09:42:15.831Z,100419.97
2022-10-22T09:44:46.355Z,100420.72
2022-10-22T09:48:00.425Z,100427.72
2022-10-22T09:50:45.321Z,100431.53
2022-10-22T09:53:17.729Z,100439.38
2022-10-22T09:55:49.217Z,100433.16
2022-10-22T09:58:17.661Z,100419.84
2022-10-22T10:00:47.434Z,100417.38
2022-10-22T10:03:33.331Z,100418.00
2022-10-22T10:06:04.824Z,100422.03
2022-10-22T10:08:33.226Z,100415.91
2022-10-22T10:11:05.890Z,100406.06
2022-10-22T10:13:51.285Z,100413.69
2022-10-22T10:16:27.585Z,100415.12
2022-10-22T10:19:00.009Z,100406.78
2022-10-22T10:22:03.664Z,100417.59
2022-10-22T10:24:39.160Z,100401.31
2022-10-22T10:27:15.082Z,100393.66
2022-10-22T10:30:11.722Z,100401.44
2022-10-22T10:32:56.467Z,100403.16
2022-10-22T10:35:40.579Z,100405.88
2022-10-22T10:38:16.293Z,100395.81
2022-10-22T10:40:56.963Z,100406.50
2022-10-22T10:43:32.882Z,100399.44
2022-10-22T10:46:09.331Z,100388.12
2022-10-22T10:48:38.656Z,100379.31
2022-10-22T10:51:17.282Z,100394.22
2022-10-22T10:53:43.770Z,100391.00
2022-10-22T10:56:16.566Z,100405.50
2022-10-22T10:59:09.324Z,100411.72
2022-10-22T11:01:54.113Z,100413.56
2022-10-22T11:04:50.780Z,100411.53
2022-10-22T11:07:34.247Z,100399.53
2022-10-22T11:10:28.262Z,100410.41
2022-10-22T11:13:02.225Z,100409.66
2022-10-22T11:15:34.262Z,100412.97
2022-10-22T11:18:15.991Z,100409.41
2022-10-22T11:21:03.998Z,100412.00
2022-10-22T11:23:38.082Z,100404.25
2022-10-22T11:26:11.546Z,100403.31
2022-10-22T11:28:45.073Z,100397.38
2022-10-22T11:31:17.084Z,100396.53
2022-10-22T11:34:33.107Z,100386.28
2022-10-22T11:37:02.994Z,100389.66
2022-10-22T11:39:35.509Z,100379.13
2022-10-22T11:42:06.197Z,100374.97
2022-10-22T11:44:49.042Z,100369.56
2022-10-22T11:47:24.857Z,100358.34
2022-10-22T11:49:59.743Z,100364.62
2022-10-22T11:52:55.120Z,100361.12
2022-10-22T11:55:45.896Z,100362.72
2022-10-22T11:58:27.830Z,100369.31
2022-10-22T12:01:25.980Z,100357.94
2022-10-22T12:03:58.741Z,100346.25
2022-10-22T12:06:26.990Z,100338.25
2022-10-22T12:08:53.588Z,100333.91
2022-10-22T12:11:20.112Z,100335.56
2022-10-22T12:13:53.033Z,100345.16
2022-10-22T12:16:32.280Z,100351.69
2022-10-22T12:19:10.445Z,100347.31
2022-10-22T12:21:39.419Z,100342.37
2022-10-22T12:24:07.335Z,100339.66
2022-10-22T12:26:35.000Z,100345.78
2022-10-22T12:29:06.365Z,100345.28
2022-10-22T12:31:37.880Z,100345.56
2022-10-22T12:34:04.727Z,100346.00
2022-10-22T12:36:33.835Z,100333.00
2022-10-22T12:39:02.159Z,100345.16
2022-10-22T12:41:39.835Z,100341.87
2022-10-22T12:44:06.488Z,100334.50
2022-10-22T12:46:35.486Z,100327.22
2022-10-22T12:49:05.410Z,100320.62
2022-10-22T12:51:39.152Z,100323.84
2022-10-22T12:54:33.082Z,100334.34
2022-10-22T12:57:00.514Z,100334.72
2022-10-22T12:59:32.618Z,100352.19
2022-10-22T13:01:59.778Z,100349.78
2022-10-22T13:04:26.755Z,100344.47
2022-10-22T13:07:04.350Z,100342.53
2022-10-22T13:09:40.226Z,100334.06
2022-10-22T13:12:10.768Z,100342.47
2022-10-22T13:14:38.596Z,100337.72
2022-10-22T13:17:38.269Z,100348.84
2022-10-22T13:20:17.463Z,100347.56
2022-10-22T13:23:00.170Z,100345.66
2022-10-22T13:25:34.870Z,100339.44
2022-10-22T13:28:10.566Z,100346.94
2022-10-22T13:30:38.725Z,100347.00
2022-10-22T13:33:06.966Z,100340.75
2022-10-22T13:35:38.434Z,100344.16
2022-10-22T13:38:31.447Z,100339.44
2022-10-22T13:40:59.477Z,100339.84
2022-10-22T13:43:26.257Z,100350.13
2022-10-22T13:45:58.601Z,100339.56
2022-10-22T13:48:28.112Z,100339.22
2022-10-22T13:50:54.923Z,100343.19
2022-10-22T13:53:24.047Z,100349.88
2022-10-22T13:55:50.678Z,100345.19
2022-10-22T13:58:24.706Z,100353.47
2022-10-22T14:01:03.416Z,100357.34
2022-10-22T14:03:33.305Z,100354.72
2022-10-22T14:06:00.955Z,100350.66
2022-10-22T14:08:28.667Z,100353.38
2022-10-22T14:10:55.512Z,100352.94
2022-10-22T14:13:22.145Z,100341.75
2022-10-22T14:15:51.533Z,100337.41
2022-10-22T14:18:26.689Z,100348.28
2022-10-22T14:21:00.137Z,100339.69
2022-10-22T14:23:29.747Z,100352.03
2022-10-22T14:25:57.596Z,100354.72
2022-10-22T14:28:24.346Z,100353.53
2022-10-22T14:30:52.040Z,100348.91
2022-10-22T14:33:31.997Z,100352.78
2022-10-22T14:36:01.988Z,100355.66
2022-10-22T14:38:29.322Z,100353.38
2022-10-22T14:40:57.187Z,100348.59
2022-10-22T14:43:26.822Z,100333.94
2022-10-22T14:45:53.970Z,100331.66
2022-10-22T14:48:20.834Z,100349.13
2022-10-22T14:50:48.242Z,100348.84
2022-10-22T14:53:16.846Z,100340.16
2022-10-22T14:55:44.735Z,100344.47
2022-10-22T14:58:12.477Z,100346.63
2022-10-22T15:00:41.885Z,100358.06
2022-10-22T15:03:08.610Z,100365.38
2022-10-22T15:05:36.296Z,100359.66
2022-10-22T15:08:02.927Z,100365.13
2022-10-22T15:10:29.494Z,100371.66
2022-10-22T15:12:56.031Z,100370.38
2022-10-22T15:15:23.228Z,100371.06
2022-10-22T15:17:51.279Z,100362.78
2022-10-22T15:20:17.912Z,100367.91
2022-10-22T15:22:45.339Z,100368.91
2022-10-22T15:25:14.091Z,100373.28
2022-10-22T15:27:40.695Z,100374.97
2022-10-22T15:30:08.378Z,100363.81
2022-10-22T15:32:34.978Z,100367.47
2022-10-22T15:35:01.844Z,100368.59
2022-10-22T15:37:28.463Z,100379.09
2022-10-22T15:39:56.363Z,100385.56
2022-10-22T15:42:23.872Z,100379.78
2022-10-22T15:44:58.001Z,100374.53
2022-10-22T15:47:28.457Z,100376.13
2022-10-22T15:49:55.442Z,100383.75
2022-10-22T15:52:23.617Z,100378.19
2022-10-22T15:54:50.178Z,100385.81
2022-10-22T15:57:16.774Z,100395.44
2022-10-22T15:59:43.412Z,100398.44
2022-10-22T16:02:11.666Z,100395.78
2022-10-22T16:04:38.971Z,100400.91
2022-10-22T16:07:06.748Z,100405.88
2022-10-22T16:09:33.299Z,100410.66
2022-10-22T16:11:59.871Z,100411.78
2022-10-22T16:14:28.634Z,100417.84
2022-10-22T16:16:56.118Z,100415.66
2022-10-22T16:19:24.338Z,100425.44
2022-10-22T16:21:53.052Z,100434.91
2022-10-22T16:24:20.679Z,100439.63
2022-10-22T16:26:48.358Z,100438.41
2022-10-22T16:29:16.141Z,100445.28
2022-10-22T16:31:44.057Z,100449.28
2022-10-22T16:34:13.425Z,100458.84
2022-10-22T16:36:40.120Z,100466.75
2022-10-22T16:39:07.071Z,100475.22
2022-10-22T16:41:37.048Z,100486.66
2022-10-22T16:44:07.813Z,100502.19
2022-10-22T16:46:38.272Z,100506.28
2022-10-22T16:49:05.157Z,100498.66
2022-10-22T16:51:31.758Z,100514.16
2022-10-22T16:53:58.571Z,100512.16
2022-10-22T16:56:26.182Z,100522.41
2022-10-22T16:58:55.284Z,100518.44
2022-10-22T17:01:25.926Z,100524.84
2022-10-22T17:03:54.795Z,100518.25
2022-10-22T17:06:23.638Z,100526.69
2022-10-22T17:08:50.423Z,100523.25
2022-10-22T17:11:20.904Z,100522.09
2022-10-22T17:13:49.285Z,100526.31
2022-10-22T17:16:18.224Z,100527.31
2022-10-22T17:21:14.315Z,100522.50
2022-10-22T17:23:42.702Z,100531.94
2022-10-22T17:26:17.630Z,100535.94
2022-10-22T17:28:44.673Z,100529.75
2022-10-22T17:31:23.901Z,100517.69
2022-10-22T17:33:52.647Z,100514.69
2022-10-22T17:36:20.615Z,100521.28
2022-10-22T17:38:52.922Z,100521.47
2022-10-22T17:41:21.951Z,100530.91
2022-10-22T17:43:48.659Z,100538.97
2022-10-22T17:46:21.606Z,100539.56
2022-10-22T17:48:56.866Z,100549.19
2022-10-22T17:51:25.126Z,100556.22
2022-10-22T17:53:51.730Z,100545.97
2022-10-22T17:56:21.314Z,100548.59
2022-10-22T17:58:48.274Z,100549.84
2022-10-22T18:01:23.862Z,100554.09
2022-10-22T18:03:52.059Z,100565.53
2022-10-22T18:06:18.771Z,100573.81
2022-10-22T18:08:45.601Z,100575.22
2022-10-22T18:11:17.748Z,100566.41
2022-10-22T18:13:44.442Z,100559.25
2022-10-22T18:16:11.024Z,100569.72
2022-10-22T18:18:37.674Z,100574.09
2022-10-22T18:21:05.296Z,100588.16
2022-10-22T18:23:31.841Z,100588.16
2022-10-22T18:25:58.363Z,100583.94
2022-10-22T18:28:25.039Z,100576.78
2022-10-22T18:30:51.602Z,100590.22
2022-10-22T18:33:19.350Z,100583.56
2022-10-22T18:35:46.683Z,100570.75
2022-10-22T18:38:13.430Z,100575.34
2022-10-22T18:40:46.745Z,100587.00
2022-10-22T18:43:13.794Z,100595.00
2022-10-22T18:45:48.504Z,100602.63
2022-10-22T18:48:18.471Z,100607.03
2022-10-22T18:50:47.035Z,100616.28
2022-10-22T18:53:16.117Z,100611.25
2022-10-22T18:55:42.868Z,100612.69
2022-10-22T18:58:09.410Z,100609.25
2022-10-22T19:00:36.330Z,100602.25
2022-10-22T19:03:03.350Z,100599.44
2022-10-22T19:05:30.038Z,100610.69
2022-10-22T19:07:56.765Z,100622.72
2022-10-22T19:10:23.288Z,100615.91
2022-10-22T19:12:49.818Z,100600.06
2022-10-22T19:15:16.560Z,100613.47
2022-10-22T19:17:43.390Z,100600.06
2022-10-22T19:20:10.590Z,100603.84
2022-10-22T19:22:37.144Z,100608.09
2022-10-22T19:25:05.966Z,100608.28
2022-10-22T19:27:36.412Z,100603.47
2022-10-22T19:30:04.806Z,100603.25
2022-10-22T19:32:31.389Z,100603.66
2022-10-22T19:34:58.077Z,100623.06
2022-10-22T19:37:24.647Z,100626.22
2022-10-22T19:39:51.197Z,100626.00
2022-10-22T19:42:17.806Z,100620.00
2022-10-22T19:44:44.322Z,100627.56
2022-10-22T19:47:11.966Z,100627.69
2022-10-22T19:49:38.617Z,100627.28
2022-10-22T19:52:05.532Z,100629.69
2022-10-22T19:54:32.133Z,100640.66
2022-10-22T19:56:58.800Z,100641.03
2022-10-22T19:59:29.799Z,100642.81
2022-10-22T20:01:58.070Z,100634.81
2022-10-22T20:04:26.772Z,100643.78
2022-10-22T20:06:53.973Z,100647.97
2022-10-22T20:09:20.582Z,100648.47
2022-10-22T20:11:47.155Z,100645.62
2022-10-22T20:14:14.262Z,100659.91
2022-10-22T20:16:41.499Z,100661.25
2022-10-22T20:19:08.777Z,100664.25
2022-10-22T20:21:35.477Z,100673.91
2022-10-22T20:24:02.132Z,100677.59
2022-10-22T20:26:29.172Z,100674.59
2022-10-22T20:28:57.132Z,100674.00
2022-10-22T20:31:27.081Z,100680.56
2022-10-22T20:33:57.562Z,100679.16
2022-10-22T20:36:24.691Z,100676.94
2022-10-22T20:38:51.646Z,100681.72
2022-10-22T20:41:22.941Z,100682.47
2022-10-22T20:43:51.609Z,100680.63
2022-10-22T20:46:21.124Z,100691.41
2022-10-22T20:48:47.689Z,100689.19
2022-10-22T20:51:14.307Z,100683.97
2022-10-22T20:53:41.942Z,100698.59
2022-10-22T20:56:08.603Z,100687.03
2022-10-22T20:58:35.839Z,100691.47
2022-10-22T21:01:09.748Z,100703.25
2022-10-22T21:03:39.627Z,100702.56
2022-10-22T21:06:06.606Z,100697.19
2022-10-22T21:08:33.196Z,100704.13
2022-10-22T21:10:59.893Z,100710.25
2022-10-22T21:13:26.448Z,100702.00
2022-10-22T21:15:52.972Z,100709.59
2022-10-22T21:18:19.497Z,100704.91
2022-10-22T21:20:46.031Z,100705.50
2022-10-22T21:23:12.574Z,100704.31
2022-10-22T21:25:41.982Z,100708.88
2022-10-22T21:28:10.883Z,100712.47
2022-10-22T21:30:44.023Z,100710.06
2022-10-22T21:33:10.628Z,100713.50
2022-10-22T21:35:37.172Z,100715.72
2022-10-22T21:38:05.203Z,100717.69
2022-10-22T21:40:31.750Z,100719.25
2022-10-22T21:42:58.290Z,100719.00
2022-10-22T21:45:24.842Z,100717.69
2022-10-22T21:47:51.374Z,100728.00
2022-10-22T21:50:17.985Z,100724.91
2022-10-22T21:52:44.491Z,100724.22
2022-10-22T21:55:11.051Z,100721.34
2022-10-22T21:57:37.654Z,100725.37
2022-10-22T22:00:07.231Z,100717.97
2022-10-22T22:02:35.373Z,100714.34
2022-10-22T22:05:01.917Z,100720.19
2022-10-22T22:07:28.550Z,100712.06
2022-10-22T22:09:55.164Z,100714.31
2022-10-22T22:12:21.767Z,100719.31
2022-10-22T22:14:48.381Z,100727.03
2022-10-22T22:17:16.509Z,100715.28
2022-10-22T22:19:43.120Z,100712.84
2022-10-22T22:22:09.886Z,100719.81
2022-10-22T22:24:39.746Z,100717.19
2022-10-22T22:27:06.372Z,100722.56
2022-10-22T22:29:35.589Z,100734.63
2022-10-22T22:32:02.279Z,100730.53
2022-10-22T22:34:28.822Z,100729.47
2022-10-22T22:36:55.349Z,100742.09
2022-10-22T22:39:23.511Z,100749.25
2022-10-22T22:41:50.167Z,100744.78
2022-10-22T22:44:16.967Z,100741.94
2022-10-22T22:46:43.993Z,100745.44
2022-10-22T22:49:12.195Z,100753.50
2022-10-22T22:51:38.826Z,100750.72
2022-10-22T22:54:06.155Z,100746.88
2022-10-22T22:59:31.385Z,100759.28
2022-10-22T23:02:00.704Z,100765.16
2022-10-22T23:04:29.455Z,100765.16
2022-10-22T23:06:56.506Z,100765.06
2022-10-22T23:09:23.156Z,100762.53
2022-10-22T23:11:50.740Z,100770.31
2022-10-22T23:14:19.131Z,100777.16
2022-10-22T23:16:49.098Z,100772.81
2022-10-22T23:19:18.469Z,100767.72
2022-10-22T23:21:48.643Z,100773.66
2022-10-22T23:24:19.207Z,100775.13
2022-10-22T23:26:54.059Z,100768.03
2022-10-22T23:29:28.157Z,100757.38
2022-10-22T23:31:55.739Z,100760.22
2022-10-22T23:34:24.832Z,100769.00
2022-10-22T23:36:52.744Z,100766.50
2022-10-22T23:39:22.835Z,100763.75
2022-10-22T23:41:49.903Z,100755.41
2022-10-22T23:44:17.043Z,100761.88
2022-10-22T23:46:43.848Z,100762.56
2022-10-22T23:49:11.696Z,100768.13
2022-10-22T23:51:39.549Z,100773.31
2022-10-22T23:54:10.706Z,100770.91
2022-10-22T23:56:37.471Z,100767.69
2022-10-22T23:59:04.487Z,100764.25
